createdAt,value
2024-01-30T00:02:01.978Z,102485.78
2024-01-30T00:04:29.288Z,102483.13
2024-01-30T00:06:56.420Z,102490.13
2024-01-30T00:09:23.605Z,102485.78
2024-01-30T00:11:50.783Z,102489.22
2024-01-30T00:14:18.420Z,102487.47
2024-01-30T00:16:46.466Z,102491.00
2024-01-30T00:19:13.774Z,102490.94
2024-01-30T00:21:41.012Z,102489.94
2024-01-30T00:24:08.108Z,102488.16
2024-01-30T00:26:35.287Z,102488.81
2024-01-30T00:29:02.717Z,102487.84
2024-01-30T00:31:30.408Z,102486.06
2024-01-30T00:33:57.560Z,102485.09
2024-01-30T00:36:24.699Z,102480.75
2024-01-30T00:38:51.938Z,102476.84
2024-01-30T00:41:20.509Z,102478.88
2024-01-30T00:43:47.674Z,102484.13
2024-01-30T00:46:14.796Z,102477.13
2024-01-30T00:48:42.040Z,102478.09
2024-01-30T00:51:09.218Z,102467.41
2024-01-30T00:53:36.432Z,102472.84
2024-01-30T00:56:04.596Z,102477.19
2024-01-30T00:58:31.744Z,102485.00
2024-01-30T01:00:59.087Z,102482.25
2024-01-30T01:03:26.443Z,102478.44
2024-01-30T01:05:53.613Z,102476.66
2024-01-30T01:08:21.396Z,102475.78
2024-01-30T01:10:48.460Z,102469.84
2024-01-30T01:13:15.641Z,102471.34
2024-01-30T01:15:44.363Z,102471.25
2024-01-30T01:18:11.533Z,102470.91
2024-01-30T01:20:38.713Z,102470.47
2024-01-30T01:23:05.854Z,102460.78
2024-01-30T01:25:32.926Z,102468.25
2024-01-30T01:28:02.366Z,102451.56
2024-01-30T01:30:30.260Z,102447.81
2024-01-30T01:32:58.816Z,102436.09
2024-01-30T01:35:26.554Z,102434.06
2024-01-30T01:37:57.608Z,102441.00
2024-01-30T01:40:26.151Z,102445.97
2024-01-30T01:42:54.114Z,102437.06
2024-01-30T01:45:22.364Z,102453.59
2024-01-30T01:47:52.665Z,102450.16
2024-01-30T01:50:22.167Z,102459.00
2024-01-30T01:52:50.031Z,102452.88
2024-01-30T01:55:23.702Z,102449.88
2024-01-30T01:57:51.143Z,102449.13
2024-01-30T02:00:20.358Z,102458.19
2024-01-30T02:02:48.200Z,102450.69
2024-01-30T02:05:16.815Z,102450.50
2024-01-30T02:07:44.901Z,102457.13
2024-01-30T02:10:12.415Z,102450.75
2024-01-30T02:12:40.035Z,102449.84
2024-01-30T02:15:08.586Z,102438.69
2024-01-30T02:17:35.832Z,102438.56
2024-01-30T02:20:04.551Z,102430.69
2024-01-30T02:22:35.195Z,102443.53
2024-01-30T02:25:02.451Z,102437.13
2024-01-30T02:27:29.683Z,102441.19
2024-01-30T02:29:56.836Z,102445.34
2024-01-30T02:32:23.978Z,102443.28
2024-01-30T02:34:51.167Z,102451.97
2024-01-30T02:37:18.726Z,102458.59
2024-01-30T02:39:46.113Z,102452.28
2024-01-30T02:42:13.319Z,102446.06
2024-01-30T02:44:40.462Z,102442.09
2024-01-30T02:47:07.784Z,102438.03
2024-01-30T02:49:35.059Z,102444.88
2024-01-30T02:52:02.266Z,102440.22
2024-01-30T02:54:31.664Z,102428.97
2024-01-30T02:56:59.014Z,102433.31
2024-01-30T02:59:26.104Z,102408.59
2024-01-30T03:01:53.362Z,102418.09
2024-01-30T03:04:20.709Z,102417.72
2024-01-30T03:06:51.157Z,102416.69
2024-01-30T03:09:19.308Z,102415.31
2024-01-30T03:11:46.641Z,102405.03
2024-01-30T03:14:13.751Z,102407.81
2024-01-30T03:16:40.839Z,102402.75
2024-01-30T03:19:10.269Z,102396.13
2024-01-30T03:21:37.606Z,102398.47
2024-01-30T03:24:04.949Z,102388.38
2024-01-30T03:26:32.274Z,102391.75
2024-01-30T03:28:59.427Z,102379.53
2024-01-30T03:31:26.748Z,102385.94
2024-01-30T03:33:54.039Z,102389.84
2024-01-30T03:36:21.384Z,102387.63
2024-01-30T03:38:48.573Z,102395.97
2024-01-30T03:41:16.050Z,102391.03
2024-01-30T03:43:43.313Z,102390.47
2024-01-30T03:46:10.514Z,102377.00
2024-01-30T03:48:37.709Z,102373.78
2024-01-30T03:51:05.492Z,102373.09
2024-01-30T03:53:32.677Z,102370.69
2024-01-30T03:55:59.823Z,102365.53
2024-01-30T03:58:27.055Z,102365.72
2024-01-30T04:00:54.245Z,102372.81
2024-01-30T04:03:21.527Z,102366.06
2024-01-30T04:05:48.764Z,102368.09
2024-01-30T04:08:15.960Z,102380.06
2024-01-30T04:10:43.118Z,102367.66
2024-01-30T04:13:12.466Z,102370.69
2024-01-30T04:15:40.430Z,102375.19
2024-01-30T04:18:07.659Z,102383.81
2024-01-30T04:20:34.855Z,102370.75
2024-01-30T04:23:01.924Z,102378.75
2024-01-30T04:25:29.090Z,102379.16
2024-01-30T04:27:56.334Z,102377.41
2024-01-30T04:30:23.458Z,102372.41
2024-01-30T04:32:50.617Z,102374.91
2024-01-30T04:35:17.966Z,102370.81
2024-01-30T04:37:45.133Z,102353.59
2024-01-30T04:40:12.525Z,102353.75
2024-01-30T04:42:39.811Z,102355.34
2024-01-30T04:45:07.851Z,102338.78
2024-01-30T04:47:35.037Z,102348.75
2024-01-30T04:50:03.075Z,102344.59
2024-01-30T04:52:30.267Z,102342.00
2024-01-30T04:54:57.439Z,102345.66
2024-01-30T04:57:24.589Z,102343.00
2024-01-30T04:59:51.721Z,102342.66
2024-01-30T05:02:18.976Z,102347.03
2024-01-30T05:04:46.111Z,102352.25
2024-01-30T05:07:13.296Z,102359.38
2024-01-30T05:09:40.598Z,102362.00
2024-01-30T05:12:08.480Z,102341.00
2024-01-30T05:14:35.716Z,102357.91
2024-01-30T05:17:04.178Z,102357.19
2024-01-30T05:19:31.504Z,102348.84
2024-01-30T05:21:58.799Z,102354.13
2024-01-30T05:24:27.855Z,102355.19
2024-01-30T05:26:55.338Z,102354.50
2024-01-30T05:29:22.910Z,102347.00
2024-01-30T05:31:50.041Z,102344.44
2024-01-30T05:34:18.030Z,102337.56
2024-01-30T05:36:45.236Z,102333.44
2024-01-30T05:39:12.498Z,102326.59
2024-01-30T05:41:40.007Z,102319.75
2024-01-30T05:44:07.139Z,102331.06
2024-01-30T05:46:35.142Z,102336.09
2024-01-30T05:49:02.481Z,102348.38
2024-01-30T05:51:29.654Z,102349.78
2024-01-30T05:53:56.767Z,102338.13
2024-01-30T05:56:23.890Z,102339.97
2024-01-30T05:58:54.146Z,102339.09
2024-01-30T06:01:21.402Z,102346.09
2024-01-30T06:03:49.071Z,102338.13
2024-01-30T06:06:16.149Z,102355.31
2024-01-30T06:08:43.246Z,102354.47
2024-01-30T06:11:13.285Z,102345.78
2024-01-30T06:13:40.679Z,102352.00
2024-01-30T06:16:12.398Z,102352.13
2024-01-30T06:18:40.089Z,102351.34
2024-01-30T06:21:08.407Z,102334.50
2024-01-30T06:23:36.506Z,102345.25
2024-01-30T06:26:03.681Z,102353.84
2024-01-30T06:28:31.021Z,102345.69
2024-01-30T06:30:58.159Z,102339.09
2024-01-30T06:33:26.143Z,102342.56
2024-01-30T06:35:53.563Z,102357.59
2024-01-30T06:38:20.788Z,102349.22
2024-01-30T06:40:48.109Z,102355.59
2024-01-30T06:43:15.298Z,102354.78
2024-01-30T06:45:43.587Z,102357.22
2024-01-30T06:48:10.951Z,102357.34
2024-01-30T06:50:38.169Z,102367.66
2024-01-30T06:53:05.374Z,102366.81
2024-01-30T06:55:32.583Z,102367.53
2024-01-30T06:57:59.835Z,102367.44
2024-01-30T07:00:27.051Z,102363.34
2024-01-30T07:02:54.217Z,102370.84
2024-01-30T07:05:23.343Z,102375.91
2024-01-30T07:07:50.635Z,102371.72
2024-01-30T07:10:18.335Z,102372.75
2024-01-30T07:12:45.565Z,102373.56
2024-01-30T07:15:13.440Z,102367.53
2024-01-30T07:17:40.619Z,102355.59
2024-01-30T07:20:08.776Z,102366.56
2024-01-30T07:22:36.258Z,102378.66
2024-01-30T07:25:03.662Z,102371.78
2024-01-30T07:27:30.806Z,102361.16
2024-01-30T07:29:57.924Z,102387.38
2024-01-30T07:32:25.100Z,102376.94
2024-01-30T07:35:02.548Z,102379.63
2024-01-30T07:37:34.647Z,102387.44
2024-01-30T07:40:02.915Z,102384.41
2024-01-30T07:42:30.092Z,102388.09
2024-01-30T07:44:57.260Z,102390.44
2024-01-30T07:47:24.421Z,102389.00
2024-01-30T07:49:52.732Z,102393.19
2024-01-30T07:52:19.967Z,102399.16
2024-01-30T07:54:50.725Z,102379.31
2024-01-30T07:57:18.963Z,102395.94
2024-01-30T07:59:46.843Z,102396.06
2024-01-30T08:02:14.614Z,102401.72
2024-01-30T08:04:42.318Z,102402.59
2024-01-30T08:07:09.683Z,102411.59
2024-01-30T08:09:37.015Z,102404.03
2024-01-30T08:12:04.663Z,102397.91
2024-01-30T08:14:32.047Z,102401.13
2024-01-30T08:16:59.229Z,102406.19
2024-01-30T08:19:26.531Z,102405.59
2024-01-30T08:21:53.828Z,102406.72
2024-01-30T08:24:20.947Z,102404.28
2024-01-30T08:26:50.843Z,102404.22
2024-01-30T08:29:18.313Z,102403.72
2024-01-30T08:31:47.300Z,102404.75
2024-01-30T08:34:14.765Z,102396.91
2024-01-30T08:36:42.018Z,102409.19
2024-01-30T08:39:10.262Z,102406.09
2024-01-30T08:41:37.427Z,102405.28
2024-01-30T08:44:05.592Z,102411.84
2024-01-30T08:46:32.901Z,102404.41
2024-01-30T08:49:00.190Z,102412.34
2024-01-30T08:51:27.421Z,102409.28
2024-01-30T08:53:55.086Z,102400.63
2024-01-30T08:56:24.417Z,102409.56
2024-01-30T08:58:51.563Z,102406.66
2024-01-30T09:01:18.822Z,102403.44
2024-01-30T09:03:48.213Z,102410.56
2024-01-30T09:06:15.977Z,102407.22
2024-01-30T09:08:43.288Z,102416.97
2024-01-30T09:11:14.546Z,102416.50
2024-01-30T09:13:41.815Z,102412.41
2024-01-30T09:16:09.327Z,102410.41
2024-01-30T09:18:36.544Z,102412.66
2024-01-30T09:21:03.846Z,102423.31
2024-01-30T09:23:31.165Z,102417.97
2024-01-30T09:25:58.377Z,102417.44
2024-01-30T09:28:27.691Z,102423.22
2024-01-30T09:30:55.107Z,102425.91
2024-01-30T09:33:22.630Z,102422.72
2024-01-30T09:35:49.781Z,102431.69
2024-01-30T09:38:16.967Z,102428.03
2024-01-30T09:40:44.363Z,102430.78
2024-01-30T09:43:23.761Z,102436.16
2024-01-30T09:45:52.944Z,102438.00
2024-01-30T09:48:20.432Z,102444.28
2024-01-30T09:50:48.199Z,102447.69
2024-01-30T09:53:15.542Z,102450.13
2024-01-30T09:55:45.281Z,102442.09
2024-01-30T09:58:13.350Z,102447.63
2024-01-30T10:00:40.884Z,102455.13
2024-01-30T10:03:08.067Z,102449.78
2024-01-30T10:05:38.480Z,102453.44
2024-01-30T10:08:09.895Z,102452.00
2024-01-30T10:10:37.527Z,102454.94
2024-01-30T10:13:05.928Z,102448.91
2024-01-30T10:15:33.305Z,102452.41
2024-01-30T10:18:00.616Z,102453.84
2024-01-30T10:20:28.557Z,102456.56
2024-01-30T10:22:55.882Z,102444.66
2024-01-30T10:25:23.876Z,102443.69
2024-01-30T10:27:57.123Z,102437.13
2024-01-30T10:30:24.337Z,102441.19
2024-01-30T10:32:52.806Z,102445.25
2024-01-30T10:35:20.319Z,102458.56
2024-01-30T10:37:50.947Z,102461.91
2024-01-30T10:40:22.945Z,102429.22
2024-01-30T10:42:54.191Z,102446.03
2024-01-30T10:45:23.557Z,102439.03
2024-01-30T10:47:51.695Z,102448.28
2024-01-30T10:50:20.011Z,102459.50
2024-01-30T10:52:48.582Z,102449.16
2024-01-30T10:55:17.245Z,102464.00
2024-01-30T10:57:44.760Z,102461.44
2024-01-30T11:00:16.868Z,102452.91
2024-01-30T11:02:46.828Z,102462.66
2024-01-30T11:05:14.516Z,102462.09
2024-01-30T11:07:42.490Z,102460.72
2024-01-30T11:10:10.786Z,102472.91
2024-01-30T11:12:42.092Z,102470.31
2024-01-30T11:15:18.524Z,102476.69
2024-01-30T11:17:55.118Z,102471.75
2024-01-30T11:20:26.522Z,102471.66
2024-01-30T11:22:55.489Z,102473.16
2024-01-30T11:25:24.322Z,102478.34
2024-01-30T11:27:54.591Z,102474.44
2024-01-30T11:30:26.693Z,102471.69
2024-01-30T11:33:06.479Z,102476.31
2024-01-30T11:35:35.951Z,102488.72
2024-01-30T11:38:04.589Z,102491.38
2024-01-30T11:40:34.188Z,102493.97
2024-01-30T11:43:04.165Z,102490.66
2024-01-30T11:45:32.591Z,102502.25
2024-01-30T11:48:05.065Z,102503.56
2024-01-30T11:50:34.454Z,102524.59
2024-01-30T11:53:02.504Z,102515.75
2024-01-30T11:55:34.770Z,102510.28
2024-01-30T11:58:03.672Z,102516.09
2024-01-30T12:00:32.470Z,102515.56
2024-01-30T12:03:02.025Z,102512.66
2024-01-30T12:05:30.086Z,102514.44
2024-01-30T12:08:00.609Z,102517.78
2024-01-30T12:10:29.053Z,102523.56
2024-01-30T12:12:56.765Z,102523.44
2024-01-30T12:15:24.284Z,102531.09
2024-01-30T12:17:51.680Z,102528.38
2024-01-30T12:20:20.656Z,102523.63
2024-01-30T12:22:50.185Z,102539.03
2024-01-30T12:25:22.177Z,102527.78
2024-01-30T12:27:52.589Z,102534.50
2024-01-30T12:30:22.318Z,102543.19
2024-01-30T12:32:52.365Z,102560.75
2024-01-30T12:35:22.597Z,102576.66
2024-01-30T12:37:50.733Z,102581.75
2024-01-30T12:40:18.825Z,102576.59
2024-01-30T12:42:51.318Z,102569.28
2024-01-30T12:45:23.934Z,102567.63
2024-01-30T12:47:51.981Z,102559.00
2024-01-30T12:50:19.957Z,102575.72
2024-01-30T12:52:49.658Z,102578.31
2024-01-30T12:55:19.122Z,102564.25
2024-01-30T12:57:47.195Z,102565.94
2024-01-30T13:00:14.488Z,102578.69
2024-01-30T13:02:43.457Z,102563.41
2024-01-30T13:05:11.009Z,102573.34
2024-01-30T13:07:38.201Z,102571.44
2024-01-30T13:10:05.839Z,102567.38
2024-01-30T13:12:34.588Z,102565.59
2024-01-30T13:15:02.369Z,102563.31
2024-01-30T13:17:29.770Z,102553.03
2024-01-30T13:20:04.580Z,102558.97
2024-01-30T13:22:35.352Z,102559.84
2024-01-30T13:25:02.638Z,102557.84
2024-01-30T13:27:29.799Z,102554.31
2024-01-30T13:29:56.871Z,102560.13
2024-01-30T13:32:23.936Z,102556.13
2024-01-30T13:34:51.170Z,102568.72
2024-01-30T13:37:18.742Z,102568.72
2024-01-30T13:39:45.890Z,102564.72
2024-01-30T13:42:13.046Z,102572.91
2024-01-30T13:44:40.722Z,102569.84
2024-01-30T13:47:07.973Z,102564.59
2024-01-30T13:49:35.233Z,102570.16
2024-01-30T13:52:02.549Z,102564.34
2024-01-30T13:54:29.983Z,102574.44
2024-01-30T13:56:57.462Z,102577.56
2024-01-30T13:59:27.483Z,102567.81
2024-01-30T14:01:54.764Z,102584.22
2024-01-30T14:04:22.546Z,102590.31
2024-01-30T14:06:53.991Z,102590.31
2024-01-30T14:09:28.092Z,102591.22
2024-01-30T14:11:55.196Z,102594.84
2024-01-30T14:14:22.384Z,102599.81
2024-01-30T14:16:49.522Z,102600.97
2024-01-30T14:19:17.105Z,102591.13
2024-01-30T14:21:44.846Z,102600.66
2024-01-30T14:24:11.984Z,102601.47
2024-01-30T14:26:39.483Z,102604.66
2024-01-30T14:29:06.555Z,102613.84
2024-01-30T14:31:33.770Z,102621.34
2024-01-30T14:34:01.269Z,102618.44
2024-01-30T14:36:29.515Z,102615.94
2024-01-30T14:38:56.778Z,102624.56
2024-01-30T14:41:24.134Z,102614.78
2024-01-30T14:43:51.576Z,102628.25
2024-01-30T14:46:18.857Z,102621.13
2024-01-30T14:48:46.064Z,102621.19
2024-01-30T14:51:13.301Z,102628.47
2024-01-30T14:53:40.753Z,102636.78
2024-01-30T14:56:08.344Z,102629.41
2024-01-30T14:58:35.895Z,102631.22
2024-01-30T15:01:03.242Z,102633.94
2024-01-30T15:03:30.607Z,102640.91
2024-01-30T15:05:57.851Z,102638.75
2024-01-30T15:08:25.201Z,102653.25
2024-01-30T15:10:53.620Z,102644.19
2024-01-30T15:13:20.945Z,102652.38
2024-01-30T15:15:48.653Z,102654.75
2024-01-30T15:18:15.985Z,102656.91
2024-01-30T15:20:43.179Z,102664.44
2024-01-30T15:23:10.460Z,102656.56
2024-01-30T15:25:37.621Z,102658.22
2024-01-30T15:28:05.104Z,102668.09
2024-01-30T15:30:32.335Z,102672.97
2024-01-30T15:33:00.318Z,102665.09
2024-01-30T15:35:27.605Z,102679.31
2024-01-30T15:37:54.764Z,102678.69
2024-01-30T15:40:22.359Z,102687.06
2024-01-30T15:42:49.497Z,102696.56
2024-01-30T15:45:17.028Z,102696.19
2024-01-30T15:47:44.260Z,102701.25
2024-01-30T15:50:12.731Z,102715.41
2024-01-30T15:52:40.118Z,102709.34
2024-01-30T15:55:07.445Z,102721.16
2024-01-30T15:57:34.651Z,102738.63
2024-01-30T16:00:01.929Z,102728.13
2024-01-30T16:02:29.823Z,102725.31
2024-01-30T16:04:57.853Z,102727.00
2024-01-30T16:07:25.373Z,102746.31
2024-01-30T16:09:52.714Z,102744.63
2024-01-30T16:12:19.999Z,102739.19
2024-01-30T16:14:47.143Z,102743.44
2024-01-30T16:17:14.273Z,102747.00
2024-01-30T16:19:41.882Z,102747.00
2024-01-30T16:22:09.227Z,102742.66
2024-01-30T16:24:36.397Z,102746.72
2024-01-30T16:27:04.735Z,102758.41
2024-01-30T16:29:33.274Z,102749.50
2024-01-30T16:32:01.058Z,102750.09
2024-01-30T16:34:28.748Z,102766.75
2024-01-30T16:36:56.021Z,102780.53
2024-01-30T16:39:23.842Z,102771.00
2024-01-30T16:41:50.939Z,102777.16
2024-01-30T16:44:18.260Z,102788.97
2024-01-30T16:46:45.446Z,102797.16
2024-01-30T16:49:12.721Z,102800.34
2024-01-30T16:51:40.131Z,102805.22
2024-01-30T16:54:07.270Z,102808.31
2024-01-30T16:56:34.346Z,102815.25
2024-01-30T16:59:01.566Z,102812.38
2024-01-30T17:01:29.224Z,102822.88
2024-01-30T17:03:56.468Z,102823.81
2024-01-30T17:06:23.688Z,102830.81
2024-01-30T17:08:50.843Z,102825.22
2024-01-30T17:11:19.254Z,102832.34
2024-01-30T17:13:46.424Z,102845.41
2024-01-30T17:16:13.666Z,102844.44
2024-01-30T17:18:40.890Z,102853.84
2024-01-30T17:21:08.047Z,102847.59
2024-01-30T17:23:35.513Z,102852.75
2024-01-30T17:26:02.944Z,102858.91
2024-01-30T17:28:30.654Z,102861.25
2024-01-30T17:30:57.835Z,102854.63
2024-01-30T17:33:25.131Z,102862.34
2024-01-30T17:35:53.300Z,102869.28
2024-01-30T17:38:20.453Z,102868.28
2024-01-30T17:40:50.389Z,102883.88
2024-01-30T17:43:21.231Z,102889.81
2024-01-30T17:45:48.525Z,102898.94
2024-01-30T17:48:15.945Z,102891.78
2024-01-30T17:50:44.977Z,102907.72
2024-01-30T17:53:13.332Z,102903.56
2024-01-30T17:55:40.528Z,102914.88
2024-01-30T17:58:07.784Z,102913.00
2024-01-30T18:00:35.304Z,102921.28
2024-01-30T18:03:02.918Z,102931.50
2024-01-30T18:05:30.075Z,102932.22
2024-01-30T18:07:57.287Z,102928.31
2024-01-30T18:10:25.104Z,102934.56
2024-01-30T18:12:55.293Z,102944.88
2024-01-30T18:15:23.134Z,102950.22
2024-01-30T18:17:50.387Z,102955.88
2024-01-30T18:20:18.154Z,102955.19
2024-01-30T18:22:47.212Z,102955.09
2024-01-30T18:25:14.477Z,102967.78
2024-01-30T18:27:41.614Z,102965.19
2024-01-30T18:30:09.288Z,102960.91
2024-01-30T18:32:36.524Z,102967.34
2024-01-30T18:35:04.053Z,102970.13
2024-01-30T18:37:31.404Z,102981.91
2024-01-30T18:39:59.094Z,102975.66
2024-01-30T18:42:26.232Z,102972.94
2024-01-30T18:44:53.869Z,102986.34
2024-01-30T18:47:21.866Z,102989.44
2024-01-30T18:49:53.036Z,102996.38
2024-01-30T18:52:20.578Z,102993.28
2024-01-30T18:54:47.797Z,102996.75
2024-01-30T18:57:15.467Z,102996.56
2024-01-30T18:59:42.767Z,103006.84
2024-01-30T19:02:10.379Z,103010.78
2024-01-30T19:04:37.912Z,103007.63
2024-01-30T19:07:05.251Z,103021.28
2024-01-30T19:09:32.375Z,103020.28
2024-01-30T19:11:59.603Z,103017.16
2024-01-30T19:14:27.725Z,103013.25
2024-01-30T19:16:54.817Z,103015.94
2024-01-30T19:19:22.082Z,103018.81
2024-01-30T19:21:49.249Z,103019.81
2024-01-30T19:24:16.365Z,103029.22
2024-01-30T19:26:43.824Z,103033.38
2024-01-30T19:29:10.981Z,103031.69
2024-01-30T19:31:39.135Z,103041.53
2024-01-30T19:34:06.581Z,103050.31
2024-01-30T19:36:33.897Z,103058.81
2024-01-30T19:39:01.876Z,103061.47
2024-01-30T19:41:30.032Z,103063.28
2024-01-30T19:43:57.162Z,103066.63
2024-01-30T19:46:24.325Z,103070.78
2024-01-30T19:48:51.982Z,103078.31
2024-01-30T19:51:19.262Z,103084.13
2024-01-30T19:53:46.386Z,103079.81
2024-01-30T19:56:13.625Z,103093.53
2024-01-30T19:58:40.729Z,103093.31
2024-01-30T20:01:07.921Z,103091.31
2024-01-30T20:03:35.191Z,103082.81
2024-01-30T20:06:02.666Z,103090.31
2024-01-30T20:08:30.496Z,103088.63
2024-01-30T20:10:57.754Z,103098.16
2024-01-30T20:13:26.852Z,103100.03
2024-01-30T20:15:54.581Z,103091.78
2024-01-30T20:18:22.886Z,103119.28
2024-01-30T20:20:50.029Z,103112.94
2024-01-30T20:23:17.238Z,103130.50
2024-01-30T20:25:44.635Z,103132.16
2024-01-30T20:28:11.814Z,103135.00
2024-01-30T20:30:39.526Z,103136.09
2024-01-30T20:33:06.796Z,103134.63
2024-01-30T20:35:33.990Z,103125.91
2024-01-30T20:38:01.140Z,103132.84
2024-01-30T20:40:28.329Z,103133.63
2024-01-30T20:42:55.487Z,103143.13
2024-01-30T20:45:23.868Z,103148.97
2024-01-30T20:47:51.582Z,103145.28
2024-01-30T20:50:19.126Z,103170.25
2024-01-30T20:52:46.325Z,103167.88
2024-01-30T20:55:13.622Z,103143.94
2024-01-30T20:57:40.811Z,103155.78
2024-01-30T21:00:08.192Z,103167.00
2024-01-30T21:02:38.317Z,103176.72
2024-01-30T21:05:06.288Z,103179.75
2024-01-30T21:07:33.594Z,103173.81
2024-01-30T21:10:01.068Z,103185.88
2024-01-30T21:12:29.174Z,103170.94
2024-01-30T21:14:56.404Z,103185.78
2024-01-30T21:17:23.502Z,103180.66
2024-01-30T21:19:50.861Z,103186.03
2024-01-30T21:22:18.490Z,103186.13
2024-01-30T21:24:45.644Z,103179.97
2024-01-30T21:27:12.768Z,103176.63
2024-01-30T21:29:42.460Z,103184.22
2024-01-30T21:32:10.494Z,103187.69
2024-01-30T21:34:37.646Z,103178.66
2024-01-30T21:37:04.814Z,103192.06
2024-01-30T21:39:32.005Z,103199.66
2024-01-30T21:41:59.146Z,103201.47
2024-01-30T21:44:28.423Z,103210.63
2024-01-30T21:46:57.024Z,103214.84
2024-01-30T21:49:24.195Z,103213.19
2024-01-30T21:51:51.713Z,103215.53
2024-01-30T21:54:19.613Z,103229.16
2024-01-30T21:56:46.712Z,103222.00
2024-01-30T21:59:13.888Z,103233.19
2024-01-30T22:01:41.240Z,103224.00
2024-01-30T22:04:08.824Z,103239.28
2024-01-30T22:06:36.285Z,103232.91
2024-01-30T22:09:03.584Z,103233.25
2024-01-30T22:11:30.767Z,103233.34
2024-01-30T22:13:58.091Z,103231.56
2024-01-30T22:16:25.207Z,103238.88
2024-01-30T22:18:53.138Z,103234.28
2024-01-30T22:21:20.252Z,103238.50
2024-01-30T22:23:47.472Z,103236.00
2024-01-30T22:26:16.160Z,103228.09
2024-01-30T22:28:43.571Z,103244.75
2024-01-30T22:31:11.104Z,103242.59
2024-01-30T22:33:38.768Z,103239.56
2024-01-30T22:36:06.167Z,103237.75
2024-01-30T22:38:33.484Z,103246.34
2024-01-30T22:41:00.561Z,103246.75
2024-01-30T22:43:27.799Z,103248.31
2024-01-30T22:45:55.107Z,103252.97
2024-01-30T22:48:22.287Z,103250.97
2024-01-30T22:50:49.462Z,103244.44
2024-01-30T22:53:16.680Z,103247.00
2024-01-30T22:55:43.879Z,103265.66
2024-01-30T22:58:11.331Z,103267.19
2024-01-30T23:00:38.694Z,103265.50
2024-01-30T23:03:06.126Z,103258.75
2024-01-30T23:05:34.399Z,103265.03
2024-01-30T23:08:01.591Z,103270.31
2024-01-30T23:10:28.783Z,103265.94
2024-01-30T23:12:55.945Z,103274.84
2024-01-30T23:15:23.424Z,103269.34
2024-01-30T23:17:50.565Z,103263.78
2024-01-30T23:20:18.286Z,103263.53
2024-01-30T23:22:45.408Z,103267.75
2024-01-30T23:25:12.802Z,103274.66
2024-01-30T23:27:40.114Z,103280.91
2024-01-30T23:30:08.186Z,103282.97
2024-01-30T23:32:42.116Z,103289.00
2024-01-30T23:35:11.477Z,103292.47
2024-01-30T23:37:40.768Z,103291.91
2024-01-30T23:40:13.094Z,103288.78
2024-01-30T23:42:40.774Z,103294.50
2024-01-30T23:45:08.260Z,103297.44
2024-01-30T23:47:35.449Z,103289.53
2024-01-30T23:50:03.328Z,103290.34
2024-01-30T23:52:31.219Z,103294.81
2024-01-30T23:54:58.395Z,103299.69
2024-01-30T23:57:25.659Z,103294.09
2024-01-30T23:59:53.288Z,103304.09
